Time;durP1;ratioP1;P1;durP2;ratioP2;P2;SDS_P1;SDS_P2;PMS_P1;PMS_P2;Temp;Humidity;BMP_temperature;BMP_pressure;BME280_temperature;BME280_humidity;BME280_pressure;Samples;Min_cycle;Max_cycle;Signal;HPM_P1;HPM_P2
2022/05/03 00:00:45;;;;;;;5.28;2.13;;;13.60;49.00;;;;;;5122051;27;20035;-65
2022/05/03 00:03:28;;;;;;;5.22;2.00;;;13.50;49.10;;;;;;5116172;28;20028;-65
2022/05/03 00:06:04;;;;;;;4.82;1.85;;;13.50;49.20;;;;;;5117818;27;20105;-65
2022/05/03 00:08:42;;;;;;;5.03;2.10;;;13.50;49.40;;;;;;5115847;28;20039;-65
2022/05/03 00:11:23;;;;;;;4.13;1.85;;;13.50;49.60;;;;;;5119692;27;20054;-65
2022/05/03 00:13:59;;;;;;;6.05;2.40;;;13.40;49.60;;;;;;5130772;27;20027;-65
2022/05/03 00:16:26;;;;;;;5.90;1.98;;;13.40;49.70;;;;;;5120069;27;20042;-65
2022/05/03 00:18:52;;;;;;;5.35;2.28;;;13.40;49.80;;;;;;5115297;27;20065;-65
2022/05/03 00:21:18;;;;;;;5.25;2.08;;;13.40;50.00;;;;;;5131015;27;20030;-65
2022/05/03 00:23:43;;;;;;;6.35;2.13;;;13.30;50.10;;;;;;5135182;27;20031;-65
2022/05/03 00:26:10;;;;;;;5.53;2.17;;;13.30;50.10;;;;;;5130637;27;20026;-65
2022/05/03 00:28:38;;;;;;;5.68;2.30;;;13.30;50.20;;;;;;5132923;27;20456;-65
2022/05/03 00:31:04;;;;;;;5.28;2.20;;;13.30;50.30;;;;;;5117389;27;20047;-65
2022/05/03 00:33:33;;;;;;;5.18;2.20;;;13.30;50.30;;;;;;5115645;28;20024;-65
2022/05/03 00:35:59;;;;;;;4.68;2.10;;;13.30;50.30;;;;;;5124211;27;20355;-65
2022/05/03 00:38:24;;;;;;;5.60;2.20;;;13.30;50.40;;;;;;5134761;27;20025;-65
2022/05/03 00:40:56;;;;;;;4.63;2.15;;;13.30;50.40;;;;;;5125854;27;20026;-65
2022/05/03 00:43:31;;;;;;;5.50;2.28;;;13.30;50.60;;;;;;5135768;27;20420;-65
2022/05/03 00:46:05;;;;;;;5.45;2.28;;;13.30;50.70;;;;;;5131172;27;20015;-65
2022/05/03 00:48:39;;;;;;;5.63;2.33;;;13.30;50.80;;;;;;5133902;27;20467;-65
2022/05/03 00:51:30;;;;;;;4.63;2.15;;;13.20;50.80;;;;;;5125959;27;20028;-65
2022/05/03 00:54:12;;;;;;;6.28;2.47;;;13.20;50.90;;;;;;5115123;28;20039;-65
2022/05/03 00:56:52;;;;;;;6.60;2.70;;;13.20;50.90;;;;;;5121077;27;20067;-65
2022/05/03 00:59:35;;;;;;;5.63;2.20;;;13.20;51.00;;;;;;5129360;27;20320;-65
2022/05/03 01:02:06;;;;;;;4.60;2.13;;;13.20;51.00;;;;;;5120994;27;20028;-65
2022/05/03 01:04:49;;;;;;;5.22;2.47;;;13.10;51.20;;;;;;5113030;28;20038;-65
2022/05/03 01:07:34;;;;;;;5.95;2.80;;;13.10;51.30;;;;;;5128082;27;20027;-65
2022/05/03 01:10:04;;;;;;;6.05;2.33;;;13.10;51.40;;;;;;5129475;27;20027;-65
2022/05/03 01:12:46;;;;;;;5.75;2.55;;;13.10;51.50;;;;;;5128192;27;20359;-65
2022/05/03 01:15:18;;;;;;;6.45;2.38;;;13.10;51.60;;;;;;5132462;28;20077;-65
2022/05/03 01:18:02;;;;;;;6.70;2.97;;;13.00;51.60;;;;;;5127487;28;20114;-65
2022/05/03 01:20:37;;;;;;;6.10;2.60;;;13.00;51.70;;;;;;5119340;28;20459;-65
2022/05/03 01:23:35;;;;;;;6.68;2.53;;;13.00;51.80;;;;;;5131066;28;20031;-65
2022/05/03 01:26:28;;;;;;;5.85;2.20;;;13.00;51.90;;;;;;5119619;27;20039;-65
2022/05/03 01:29:19;;;;;;;6.75;2.88;;;12.90;51.80;;;;;;5114823;28;20020;-65
2022/05/03 01:31:46;;;;;;;5.43;2.42;;;12.90;51.80;;;;;;5126175;27;20040;-65
2022/05/03 01:34:14;;;;;;;6.53;2.70;;;12.90;51.90;;;;;;5114622;28;20024;-65
2022/05/03 01:36:54;;;;;;;7.13;3.15;;;12.90;52.00;;;;;;5124984;28;20420;-65
2022/05/03 01:39:41;;;;;;;7.13;2.88;;;12.90;52.10;;;;;;5126817;27;20435;-65
2022/05/03 01:42:21;;;;;;;5.97;2.63;;;12.90;52.10;;;;;;5119668;28;20063;-65
2022/05/03 01:45:08;;;;;;;6.63;2.67;;;12.90;52.20;;;;;;5116569;27;20024;-65
2022/05/03 01:47:53;;;;;;;6.82;3.20;;;12.80;52.30;;;;;;5118074;28;20042;-65
2022/05/03 01:50:43;;;;;;;7.10;3.30;;;12.80;52.40;;;;;;5113536;28;20073;-65
2022/05/03 01:53:29;;;;;;;6.10;2.50;;;12.80;52.50;;;;;;5126832;28;20031;-65
2022/05/03 01:56:01;;;;;;;6.55;2.97;;;12.70;52.60;;;;;;5133978;27;20427;-65
2022/05/03 01:58:54;;;;;;;7.03;3.22;;;12.70;52.70;;;;;;5127461;28;20027;-65
2022/05/03 02:01:22;;;;;;;6.93;3.20;;;12.70;52.80;;;;;;5113541;28;20039;-65
2022/05/03 02:04:02;;;;;;;8.10;3.28;;;12.70;52.90;;;;;;5130325;28;20027;-65
2022/05/03 02:06:48;;;;;;;6.60;3.63;;;12.60;53.00;;;;;;5128953;27;20503;-65
2022/05/03 02:09:16;;;;;;;7.47;3.80;;;12.60;53.10;;;;;;5117044;28;20448;-64
2022/05/03 02:11:59;;;;;;;7.90;3.47;;;12.60;53.20;;;;;;5112775;28;20083;-65
2022/05/03 02:14:44;;;;;;;8.40;3.40;;;12.50;53.30;;;;;;5113268;28;20024;-65
2022/05/03 02:17:36;;;;;;;6.75;3.08;;;12.50;53.40;;;;;;5122933;27;20118;-65
2022/05/03 02:20:14;;;;;;;6.88;3.17;;;12.50;53.50;;;;;;5125898;27;20020;-65
2022/05/03 02:23:07;;;;;;;7.15;3.67;;;12.40;53.50;;;;;;5127620;27;20520;-65
2022/05/03 02:25:45;;;;;;;7.40;3.63;;;12.40;53.70;;;;;;5137561;27;20095;-65
2022/05/03 02:28:36;;;;;;;8.13;4.05;;;12.40;53.90;;;;;;5127002;27;20076;-65
2022/05/03 02:31:04;;;;;;;6.93;3.28;;;12.30;54.00;;;;;;5134340;27;20050;-65
2022/05/03 02:33:38;;;;;;;7.32;3.70;;;12.30;54.10;;;;;;5117941;27;20027;-65
2022/05/03 02:36:07;;;;;;;7.60;3.95;;;12.20;54.30;;;;;;5117249;27;20356;-65
2022/05/03 02:39:09;;;;;;;8.60;3.42;;;12.10;54.40;;;;;;5126398;27;20035;-65
2022/05/03 02:41:38;;;;;;;7.85;3.67;;;12.10;54.70;;;;;;5119469;27;20448;-65
2022/05/03 02:44:04;;;;;;;7.72;3.70;;;12.10;54.70;;;;;;5130709;27;20031;-65
2022/05/03 02:46:54;;;;;;;7.40;3.95;;;12.10;54.70;;;;;;5127922;27;20460;-65
2022/05/03 02:49:34;;;;;;;8.73;4.18;;;12.10;54.80;;;;;;5129439;27;20079;-65
2022/05/03 02:52:14;;;;;;;7.25;3.65;;;12.10;54.80;;;;;;5132543;27;20083;-65
2022/05/03 02:54:50;;;;;;;8.15;4.10;;;12.10;54.90;;;;;;5134403;27;20467;-65
2022/05/03 02:57:27;;;;;;;8.30;3.65;;;12.10;55.00;;;;;;5133969;27;20032;-65
2022/05/03 03:02:51;;;;;;;8.43;4.18;;;12.00;55.10;;;;;;5121803;27;20037;-65
2022/05/03 03:05:21;;;;;;;8.43;3.75;;;12.10;55.40;;;;;;5123956;27;20131;-65
2022/05/03 03:07:58;;;;;;;8.00;4.20;;;12.00;55.40;;;;;;5134464;27;20035;-65
2022/05/03 03:10:38;;;;;;;7.15;3.97;;;12.00;55.60;;;;;;5126044;27;20050;-65
2022/05/03 03:13:13;;;;;;;7.65;3.88;;;12.00;55.80;;;;;;5128436;27;20363;-65
2022/05/03 03:15:40;;;;;;;8.88;4.35;;;11.90;55.80;;;;;;5116919;28;20073;-65
2022/05/03 03:18:14;;;;;;;8.63;4.32;;;11.90;55.90;;;;;;5116947;27;20468;-64
2022/05/03 03:20:53;;;;;;;8.13;4.00;;;11.90;56.10;;;;;;5132578;27;20031;-65
2022/05/03 03:23:24;;;;;;;7.65;3.80;;;11.90;56.20;;;;;;5121111;27;20031;-65
2022/05/03 03:25:51;;;;;;;8.88;4.40;;;11.80;56.20;;;;;;5119419;27;20348;-65
2022/05/03 03:28:21;;;;;;;9.88;4.32;;;11.80;56.30;;;;;;5116336;27;20031;-65
2022/05/03 03:30:49;;;;;;;7.63;4.13;;;11.80;56.30;;;;;;5107078;28;20050;-65
2022/05/03 03:33:19;;;;;;;8.85;4.95;;;11.80;56.40;;;;;;5131241;27;20062;-65
2022/05/03 03:35:47;;;;;;;8.55;4.68;;;11.80;56.50;;;;;;5117666;27;20031;-65
2022/05/03 03:38:13;;;;;;;8.98;4.72;;;11.70;56.60;;;;;;5098204;28;20027;-65
2022/05/03 03:40:40;;;;;;;10.15;4.80;;;11.60;56.70;;;;;;5130588;27;20058;-65
2022/05/03 03:43:06;;;;;;;9.85;4.88;;;11.60;57.40;;;;;;5115492;27;20031;-65
2022/05/03 03:45:32;;;;;;;8.13;4.50;;;11.60;56.90;;;;;;5129897;27;20031;-65
2022/05/03 03:48:00;;;;;;;8.50;4.53;;;11.60;57.00;;;;;;5117677;27;20032;-65
2022/05/03 03:50:27;;;;;;;9.70;4.65;;;11.50;57.10;;;;;;5132880;27;20042;-65
2022/05/03 03:52:54;;;;;;;9.38;4.55;;;11.50;57.30;;;;;;5131210;27;20020;-65
2022/05/03 03:55:20;;;;;;;7.38;3.92;;;11.40;57.20;;;;;;5116474;27;20356;-65
2022/05/03 03:57:46;;;;;;;10.00;4.53;;;11.40;57.30;;;;;;5133103;27;20035;-65
2022/05/03 04:00:14;;;;;;;9.65;4.40;;;11.40;57.30;;;;;;5130762;27;20420;-67
2022/05/03 04:02:41;;;;;;;8.45;4.38;;;11.40;57.40;;;;;;5136548;27;20034;-65
2022/05/03 04:05:13;;;;;;;7.35;3.88;;;11.40;57.50;;;;;;5126762;27;20101;-65
2022/05/03 04:07:39;;;;;;;9.10;4.57;;;11.40;57.60;;;;;;5115884;27;20137;-65
2022/05/03 04:10:05;;;;;;;9.02;4.40;;;11.40;57.60;;;;;;5122049;27;20477;-65
2022/05/03 04:12:31;;;;;;;7.90;4.30;;;11.40;57.70;;;;;;5128443;27;20349;-65
2022/05/03 04:14:57;;;;;;;8.27;4.45;;;11.40;57.80;;;;;;5128555;27;20071;-65
2022/05/03 04:17:23;;;;;;;9.55;4.20;;;11.40;57.90;;;;;;5129820;27;20379;-65
2022/05/03 04:19:49;;;;;;;8.95;4.50;;;11.30;57.90;;;;;;5124120;27;20055;-65
2022/05/03 04:22:34;;;;;;;9.98;5.20;;;11.30;58.00;;;;;;5115621;28;20356;-65
2022/05/03 04:25:01;;;;;;;8.43;4.43;;;11.40;58.20;;;;;;5117605;27;20023;-65
2022/05/03 04:27:27;;;;;;;8.57;4.57;;;11.40;58.10;;;;;;5102508;27;20460;-65
2022/05/03 04:29:54;;;;;;;8.77;4.10;;;11.40;58.20;;;;;;5119461;27;20051;-65
2022/05/03 04:32:20;;;;;;;8.88;4.80;;;11.40;58.30;;;;;;5121316;27;20023;-65
2022/05/03 04:34:46;;;;;;;9.68;4.60;;;11.40;58.30;;;;;;5116845;27;20488;-65
2022/05/03 04:37:13;;;;;;;8.68;4.53;;;11.40;58.30;;;;;;5117756;27;20043;-65
2022/05/03 04:39:39;;;;;;;9.18;4.75;;;11.40;58.30;;;;;;5120859;27;20024;-65
2022/05/03 04:42:05;;;;;;;9.40;4.85;;;11.40;58.30;;;;;;5129792;27;20405;-65
2022/05/03 04:44:31;;;;;;;8.38;4.78;;;11.40;58.20;;;;;;5130016;27;20508;-65
2022/05/03 04:46:57;;;;;;;10.50;5.22;;;11.50;58.20;;;;;;5118230;27;20027;-65
2022/05/03 04:49:22;;;;;;;9.57;5.18;;;11.50;58.30;;;;;;5118877;27;20473;-65
2022/05/03 04:51:48;;;;;;;9.77;5.38;;;11.50;58.40;;;;;;5114083;27;20402;-65
2022/05/03 04:54:14;;;;;;;9.13;5.15;;;11.40;58.40;;;;;;5121057;27;20130;-65
2022/05/03 04:56:47;;;;;;;9.90;4.80;;;11.40;58.50;;;;;;5119481;27;20045;-66
2022/05/03 04:59:12;;;;;;;11.85;4.60;;;11.50;58.70;;;;;;5111604;27;20032;-65
2022/05/03 05:01:38;;;;;;;9.32;4.93;;;11.40;58.70;;;;;;5120043;27;20337;-65
2022/05/03 05:04:04;;;;;;;8.93;4.43;;;11.50;58.70;;;;;;5123041;27;20027;-65
2022/05/03 05:06:29;;;;;;;9.13;4.78;;;11.50;58.60;;;;;;5129881;27;20106;-65
2022/05/03 05:08:55;;;;;;;9.18;5.07;;;11.50;58.50;;;;;;5129351;27;20403;-65
2022/05/03 05:11:20;;;;;;;9.45;4.55;;;11.50;58.50;;;;;;5113959;28;20099;-65
2022/05/03 05:13:46;;;;;;;9.93;4.78;;;11.50;58.50;;;;;;5114005;28;20078;-65
2022/05/03 05:16:12;;;;;;;9.60;4.32;;;11.50;58.50;;;;;;5124009;28;20019;-65
2022/05/03 05:18:38;;;;;;;10.00;4.57;;;11.60;58.50;;;;;;5133847;27;20382;-65
2022/05/03 05:21:04;;;;;;;8.63;4.22;;;11.60;58.50;;;;;;5133814;28;20035;-65
2022/05/03 05:23:29;;;;;;;8.43;4.68;;;11.60;58.50;;;;;;5134785;27;20031;-65
2022/05/03 05:25:55;;;;;;;9.27;4.72;;;11.70;58.60;;;;;;5114784;28;20031;-65
2022/05/03 05:28:22;;;;;;;11.07;4.90;;;11.70;58.50;;;;;;5114948;28;20042;-65
2022/05/03 05:30:50;;;;;;;8.27;4.57;;;11.80;58.60;;;;;;5124566;28;20506;-65
2022/05/03 05:33:15;;;;;;;7.78;3.95;;;12.00;58.50;;;;;;5114748;28;20043;-65
2022/05/03 05:35:41;;;;;;;9.05;4.47;;;12.10;58.40;;;;;;5113570;28;20388;-65
2022/05/03 05:38:07;;;;;;;8.02;4.20;;;12.20;58.20;;;;;;5114496;28;20035;-65
2022/05/03 05:40:33;;;;;;;8.13;3.97;;;12.40;58.10;;;;;;5123796;28;20038;-65
2022/05/03 05:43:03;;;;;;;8.52;4.47;;;12.50;57.80;;;;;;5134553;27;20460;-65
2022/05/03 05:45:31;;;;;;;7.93;4.10;;;12.70;57.60;;;;;;5119379;28;20101;-65
2022/05/03 05:47:57;;;;;;;6.85;3.65;;;12.90;57.20;;;;;;5114882;28;20131;-65
2022/05/03 05:50:24;;;;;;;8.30;3.83;;;13.10;56.80;;;;;;5117463;27;20421;-64
2022/05/03 05:55:35;;;;;;;8.80;3.45;;;13.60;55.60;;;;;;5136281;27;20088;-65
2022/05/03 05:58:00;;;;;;;6.30;2.72;;;14.10;54.80;;;;;;5128589;27;20452;-65
2022/05/03 06:00:26;;;;;;;5.93;2.67;;;14.50;53.90;;;;;;5128031;27;20030;-65
2022/05/03 06:02:52;;;;;;;5.18;2.47;;;14.80;53.00;;;;;;5138740;27;20091;-65
2022/05/03 06:05:17;;;;;;;5.07;2.40;;;15.10;52.30;;;;;;5128196;27;20032;-64
2022/05/03 06:07:43;;;;;;;5.65;2.30;;;15.20;51.60;;;;;;5118248;28;20443;-65
2022/05/03 06:10:08;;;;;;;5.30;2.25;;;15.30;51.00;;;;;;5123665;27;20340;-65
2022/05/03 06:12:34;;;;;;;5.85;2.92;;;15.40;50.30;;;;;;5138380;27;20135;-65
2022/05/03 06:14:59;;;;;;;5.90;2.28;;;15.60;49.60;;;;;;5131792;27;20446;-65
2022/05/03 06:17:25;;;;;;;5.65;2.00;;;15.60;49.00;;;;;;5138875;27;20031;-64
2022/05/03 06:19:51;;;;;;;5.07;2.10;;;15.80;48.70;;;;;;5133208;27;20325;-64
2022/05/03 06:22:16;;;;;;;4.82;1.90;;;15.90;48.10;;;;;;5127350;27;20043;-64
2022/05/03 06:24:45;;;;;;;4.47;2.05;;;16.00;48.40;;;;;;5120453;27;20065;-65
2022/05/03 06:27:12;;;;;;;6.25;2.00;;;16.00;47.60;;;;;;5120181;27;20039;-64
2022/05/03 06:29:37;;;;;;;5.55;2.00;;;16.20;47.10;;;;;;5125820;27;20035;-65
2022/05/03 06:32:04;;;;;;;3.53;1.60;;;16.30;46.50;;;;;;5134052;27;20039;-65
2022/05/03 06:34:30;;;;;;;4.22;1.60;;;16.40;46.10;;;;;;5130311;27;20020;-65
2022/05/03 06:36:55;;;;;;;3.83;1.70;;;16.60;45.60;;;;;;5132530;27;20031;-65
2022/05/03 06:39:21;;;;;;;4.50;1.58;;;16.80;45.10;;;;;;5119957;27;20361;-65
2022/05/03 06:41:47;;;;;;;4.05;1.80;;;16.90;44.80;;;;;;5135634;27;20114;-66
2022/05/03 06:44:14;;;;;;;3.83;1.60;;;17.10;44.40;;;;;;5122529;27;20047;-64
2022/05/03 06:46:39;;;;;;;4.15;1.67;;;17.20;44.00;;;;;;5127043;27;20047;-64
2022/05/03 06:49:05;;;;;;;4.72;1.75;;;17.40;43.80;;;;;;5132039;27;20046;-64
2022/05/03 06:51:31;;;;;;;2.90;1.50;;;17.50;43.50;;;;;;5123323;27;20451;-64
2022/05/03 06:53:57;;;;;;;4.43;2.00;;;17.60;43.30;;;;;;5122573;27;20104;-64
2022/05/03 06:56:22;;;;;;;4.05;1.77;;;17.80;43.30;;;;;;5123811;27;20028;-64
2022/05/03 06:58:48;;;;;;;3.85;1.85;;;18.00;43.10;;;;;;5122793;27;20023;-64
2022/05/03 07:01:15;;;;;;;4.72;1.85;;;18.10;43.00;;;;;;5127070;27;20027;-64
2022/05/03 07:03:41;;;;;;;5.05;1.95;;;18.20;42.80;;;;;;5117541;27;20035;-64
2022/05/03 07:06:08;;;;;;;4.65;2.25;;;18.30;42.70;;;;;;5117069;28;20027;-64
2022/05/03 07:08:34;;;;;;;4.80;1.77;;;18.50;42.60;;;;;;5125969;27;20031;-65
2022/05/03 07:11:00;;;;;;;4.20;2.08;;;18.60;42.40;;;;;;5132545;27;20027;-64
2022/05/03 07:13:26;;;;;;;5.70;2.13;;;18.70;42.40;;;;;;5135598;27;20348;-64
2022/05/03 07:15:53;;;;;;;6.32;2.38;;;18.90;42.30;;;;;;5129390;27;20333;-64
2022/05/03 07:23:48;;;;;;;6.03;2.25;;;19.10;41.70;;;;;;5126398;27;20035;-64
2022/05/03 07:26:14;;;;;;;5.78;2.47;;;19.20;41.50;;;;;;5127437;27;20384;-64
2022/05/03 07:28:40;;;;;;;4.25;1.98;;;19.30;41.40;;;;;;5132374;27;20349;-64
2022/05/03 07:31:05;;;;;;;6.88;2.47;;;19.40;41.30;;;;;;5119635;27;20051;-64
2022/05/03 07:33:32;;;;;;;5.60;2.30;;;19.60;41.30;;;;;;5122558;27;20031;-64
2022/05/03 07:35:57;;;;;;;5.60;2.55;;;19.70;41.00;;;;;;5131167;27;20106;-65
2022/05/03 07:38:23;;;;;;;6.85;2.50;;;19.80;40.80;;;;;;5122796;27;20050;-64
2022/05/03 07:40:48;;;;;;;5.45;2.55;;;20.00;40.80;;;;;;5127143;27;20023;-64
2022/05/03 07:43:14;;;;;;;5.90;2.65;;;20.10;40.70;;;;;;5125512;27;20034;-64
2022/05/03 07:45:40;;;;;;;6.43;2.83;;;20.10;40.50;;;;;;5124496;27;20027;-64
2022/05/03 07:48:06;;;;;;;8.25;3.20;;;20.20;40.40;;;;;;5115185;27;20034;-65
2022/05/03 07:50:33;;;;;;;6.47;3.15;;;20.30;40.40;;;;;;5126964;27;20095;-65
2022/05/03 07:52:58;;;;;;;6.85;3.08;;;20.40;40.30;;;;;;5124216;27;20034;-66
2022/05/03 07:55:24;;;;;;;6.07;2.92;;;20.50;40.30;;;;;;5118777;27;20447;-65
2022/05/03 07:57:49;;;;;;;6.97;3.10;;;20.60;40.10;;;;;;5127566;27;20059;-67
2022/05/03 08:00:15;;;;;;;6.72;2.90;;;20.70;40.20;;;;;;5119542;27;20161;-65
2022/05/03 08:02:41;;;;;;;7.55;3.17;;;20.80;40.00;;;;;;5115095;27;20512;-65
2022/05/03 08:05:08;;;;;;;7.40;3.22;;;20.90;39.90;;;;;;5134585;27;20045;-65
2022/05/03 08:07:35;;;;;;;6.28;3.35;;;21.00;39.80;;;;;;5121986;27;20026;-65
2022/05/03 08:10:01;;;;;;;6.55;3.28;;;21.10;39.70;;;;;;5115484;27;20019;-65
2022/05/03 08:12:27;;;;;;;6.68;3.10;;;21.10;39.50;;;;;;5130092;27;20095;-65
2022/05/03 08:14:53;;;;;;;7.25;3.45;;;21.30;39.50;;;;;;5130858;27;20059;-64
2022/05/03 08:17:19;;;;;;;6.93;3.30;;;21.40;39.30;;;;;;5123164;27;20019;-64
2022/05/03 08:19:45;;;;;;;6.22;3.13;;;21.50;39.30;;;;;;5122030;27;20057;-65
2022/05/03 08:22:11;;;;;;;6.97;3.50;;;21.50;39.70;;;;;;5124238;27;20059;-65
2022/05/03 08:24:37;;;;;;;6.63;3.15;;;21.50;39.10;;;;;;5123783;27;20031;-64
2022/05/03 08:27:04;;;;;;;7.22;3.10;;;21.60;39.10;;;;;;5122922;27;20485;-64
2022/05/03 08:29:31;;;;;;;7.43;3.45;;;21.70;39.20;;;;;;5127987;27;20027;-65
2022/05/03 08:31:58;;;;;;;6.57;3.33;;;21.70;39.10;;;;;;5131208;27;20279;-65
2022/05/03 08:34:24;;;;;;;5.72;3.08;;;21.80;39.10;;;;;;5121409;27;20031;-65
2022/05/03 08:42:19;;;;;;;6.15;3.25;;;22.00;38.90;;;;;;5132922;27;20038;-65
2022/05/03 08:44:44;;;;;;;7.38;3.20;;;22.00;39.00;;;;;;5126623;27;20027;-65
2022/05/03 08:47:10;;;;;;;8.95;3.60;;;22.10;39.00;;;;;;5114847;28;20077;-65
2022/05/03 08:49:47;;;;;;;6.75;3.45;;;22.20;38.90;;;;;;5114682;28;20032;-65
2022/05/03 08:52:17;;;;;;;7.15;3.70;;;22.20;38.90;;;;;;5117953;27;20028;-65
2022/05/03 08:54:43;;;;;;;8.00;3.92;;;22.00;39.00;;;;;;5113320;28;20104;-65
2022/05/03 08:57:09;;;;;;;6.65;3.20;;;21.70;39.40;;;;;;5114750;27;20027;-65
2022/05/03 08:59:36;;;;;;;7.72;3.78;;;21.50;39.80;;;;;;5115180;28;20028;-65
2022/05/03 09:02:03;;;;;;;8.20;3.67;;;21.60;40.00;;;;;;5116349;27;20637;-65
2022/05/03 09:04:29;;;;;;;7.50;3.28;;;21.80;39.80;;;;;;5113522;28;20399;-65
2022/05/03 09:06:54;;;;;;;7.65;3.75;;;21.90;39.70;;;;;;5114085;28;20015;-65
2022/05/03 09:09:21;;;;;;;8.32;3.53;;;21.60;39.80;;;;;;5114605;28;20123;-65
2022/05/03 09:11:51;;;;;;;8.45;3.75;;;21.20;40.20;;;;;;5130691;27;20462;-65
2022/05/03 09:14:37;;;;;;;7.28;3.42;;;20.90;40.60;;;;;;5113647;28;20076;-65
2022/05/03 09:17:04;;;;;;;8.50;4.63;;;21.10;40.90;;;;;;5115159;28;20038;-65
2022/05/03 09:19:30;;;;;;;7.75;3.80;;;21.20;40.70;;;;;;5124702;28;20020;-64
2022/05/03 09:25:04;;;;;;;7.53;4.00;;;20.70;41.00;;;;;;5118616;27;20122;-65
2022/05/03 09:27:31;;;;;;;9.10;3.83;;;20.50;41.30;;;;;;5132120;27;20081;-65
2022/05/03 09:30:05;;;;;;;8.93;4.70;;;20.30;41.70;;;;;;5128453;27;20051;-65
2022/05/03 09:32:38;;;;;;;8.23;4.97;;;20.00;42.00;;;;;;5138531;27;20495;-65
2022/05/03 09:35:05;;;;;;;8.23;4.15;;;19.90;42.40;;;;;;5118573;27;20036;-65
2022/05/03 09:37:41;;;;;;;7.07;3.50;;;19.70;42.70;;;;;;5121153;27;20055;-65
2022/05/03 09:40:08;;;;;;;8.55;4.07;;;19.50;43.30;;;;;;5115975;28;20417;-64
2022/05/03 09:42:40;;;;;;;8.32;3.88;;;19.30;43.50;;;;;;5119212;28;20031;-65
2022/05/03 09:45:08;;;;;;;7.65;4.20;;;19.30;43.70;;;;;;5122139;27;20357;-65
2022/05/03 09:47:51;;;;;;;7.32;4.00;;;19.30;43.80;;;;;;5130795;27;20032;-65
2022/05/03 09:50:33;;;;;;;8.07;4.30;;;19.50;43.80;;;;;;5134121;27;20123;-65
2022/05/03 09:53:10;;;;;;;8.70;4.68;;;19.60;43.60;;;;;;5130998;27;20111;-65
2022/05/03 09:55:37;;;;;;;8.60;5.20;;;19.90;43.40;;;;;;5116454;27;20031;-67
2022/05/03 09:58:08;;;;;;;10.13;5.47;;;19.90;43.20;;;;;;5130077;27;20106;-65
2022/05/03 10:00:35;;;;;;;8.47;4.97;;;19.90;43.40;;;;;;5118090;27;20051;-64
2022/05/03 10:03:03;;;;;;;11.43;5.65;;;19.80;43.70;;;;;;5124908;27;20080;-65
2022/05/03 10:05:29;;;;;;;9.52;4.90;;;19.70;43.90;;;;;;5123654;27;20034;-65
2022/05/03 10:07:55;;;;;;;9.77;5.07;;;19.70;44.00;;;;;;5137035;27;20093;-65
2022/05/03 10:10:24;;;;;;;9.05;5.03;;;19.70;44.10;;;;;;5120435;27;20427;-65
2022/05/03 10:12:50;;;;;;;9.18;5.45;;;19.70;44.20;;;;;;5123311;27;20015;-65
2022/05/03 10:21:09;;;;;;;8.68;5.20;;;19.80;44.10;;;;;;5121789;27;20019;-65
2022/05/03 10:23:35;;;;;;;9.05;5.03;;;20.00;44.00;;;;;;5119966;27;20374;-65
2022/05/03 10:26:03;;;;;;;9.07;5.40;;;20.20;43.80;;;;;;5129900;27;20130;-66
2022/05/03 10:29:07;;;;;;;11.18;5.90;;;20.30;43.80;;;;;;5138011;27;20039;-65
2022/05/03 10:31:57;;;;;;;9.38;5.43;;;20.50;43.90;;;;;;5124551;27;20043;-66
2022/05/03 10:34:45;;;;;;;8.88;5.10;;;20.60;43.30;;;;;;5131559;27;20036;-65
2022/05/03 10:37:13;;;;;;;8.80;5.00;;;20.50;43.60;;;;;;5115980;27;20434;-66
2022/05/03 10:39:54;;;;;;;9.27;4.97;;;20.30;43.90;;;;;;5130332;27;20437;-65
2022/05/03 10:42:23;;;;;;;8.38;4.88;;;20.20;44.50;;;;;;5134882;27;20047;-65
2022/05/03 10:45:05;;;;;;;8.68;4.82;;;20.00;44.80;;;;;;5136481;27;20031;-65
2022/05/03 10:47:49;;;;;;;;;;;19.90;45.20;;;;;;5119482;27;20050;-66
2022/05/03 10:50:15;;;;;;;7.90;4.50;;;19.70;45.20;;;;;;5123632;27;19908;-65
2022/05/03 10:52:59;;;;;;;7.82;5.00;;;19.70;45.50;;;;;;5136539;27;20055;-64
2022/05/03 10:55:32;;;;;;;8.95;5.20;;;19.80;45.70;;;;;;5117475;27;20031;-67
2022/05/03 10:58:16;;;;;;;7.57;4.80;;;19.80;45.50;;;;;;5121059;27;20331;-65
2022/05/03 11:01:01;;;;;;;7.82;4.65;;;19.70;45.60;;;;;;5126012;27;20027;-66
2022/05/03 11:03:26;;;;;;;8.07;4.50;;;19.70;45.70;;;;;;5118753;28;20028;-65
2022/05/03 11:06:17;;;;;;;7.50;4.28;;;19.80;45.60;;;;;;5128868;27;20463;-66
2022/05/03 11:11:39;;;;;;;8.45;4.13;;;19.80;45.40;;;;;;5113135;27;20452;-66
2022/05/03 11:14:11;;;;;;;8.68;4.90;;;19.90;45.50;;;;;;5116314;27;20028;-65
2022/05/03 11:16:37;;;;;;;7.72;3.97;;;20.00;45.20;;;;;;5114050;27;20039;-66
2022/05/03 11:19:13;;;;;;;7.65;4.25;;;20.00;45.10;;;;;;5097881;27;20031;-66
2022/05/03 11:21:40;;;;;;;7.40;3.78;;;20.00;45.00;;;;;;5116911;27;20069;-66
2022/05/03 11:24:23;;;;;;;7.05;4.00;;;19.90;44.90;;;;;;5120385;27;20031;-66
2022/05/03 11:26:54;;;;;;;7.10;4.30;;;20.00;44.80;;;;;;5133109;27;20031;-66
2022/05/03 11:29:20;;;;;;;6.43;3.60;;;20.00;44.60;;;;;;5133613;27;20053;-66
2022/05/03 11:31:53;;;;;;;6.97;3.72;;;20.10;44.60;;;;;;5115350;27;20074;-65
2022/05/03 11:34:19;;;;;;;8.00;4.40;;;20.30;44.40;;;;;;5105595;27;20492;-65
2022/05/03 11:36:48;;;;;;;9.85;4.63;;;20.30;44.30;;;;;;5117764;27;20027;-65
2022/05/03 11:39:14;;;;;;;8.27;4.75;;;20.10;44.50;;;;;;5132416;27;20106;-65
2022/05/03 11:41:42;;;;;;;10.15;5.55;;;20.00;45.00;;;;;;5128432;27;20141;-66
2022/05/03 11:44:08;;;;;;;8.35;5.80;;;19.80;45.30;;;;;;5119421;27;20028;-66
2022/05/03 11:46:34;;;;;;;9.80;5.30;;;19.70;45.60;;;;;;5112508;28;20065;-66
2022/05/03 11:49:01;;;;;;;9.57;5.43;;;19.60;45.80;;;;;;5115246;28;20132;-65
2022/05/03 11:57:06;;;;;;;9.10;4.32;;;19.70;45.90;;;;;;5132321;27;20039;-65
2022/05/03 11:59:32;;;;;;;7.63;3.97;;;20.10;45.60;;;;;;5133286;27;20036;-65
2022/05/03 12:02:14;;;;;;;7.35;3.97;;;20.50;45.30;;;;;;5117694;27;20020;-65
2022/05/03 12:05:04;;;;;;;7.18;3.85;;;20.90;45.30;;;;;;5119215;27;20092;-65
2022/05/03 12:07:37;;;;;;;7.38;3.70;;;21.20;44.70;;;;;;5124500;27;20031;-65
2022/05/03 12:10:33;;;;;;;7.60;3.90;;;21.30;44.20;;;;;;5115526;27;20340;-65
2022/05/03 12:13:17;;;;;;;8.25;3.90;;;21.20;44.00;;;;;;5114006;27;20447;-65
2022/05/03 12:15:45;;;;;;;6.88;3.35;;;21.00;44.20;;;;;;5114388;28;20371;-65
2022/05/03 12:18:28;;;;;;;7.55;4.00;;;20.70;44.50;;;;;;5128912;27;20031;-65
2022/05/03 12:20:57;;;;;;;8.35;4.28;;;20.50;44.80;;;;;;5105033;28;20023;-66
2022/05/03 12:23:23;;;;;;;8.23;5.07;;;20.20;45.00;;;;;;5114201;27;20639;-65
2022/05/03 12:25:52;;;;;;;8.02;4.78;;;20.00;45.30;;;;;;5117232;27;20102;-66
2022/05/03 12:28:18;;;;;;;7.38;4.05;;;19.80;45.70;;;;;;5121048;27;20080;-66
2022/05/03 12:30:44;;;;;;;9.00;4.70;;;19.60;46.00;;;;;;5137669;27;20062;-66
2022/05/03 12:33:15;;;;;;;8.07;4.80;;;19.50;46.30;;;;;;5121104;27;20016;-65
2022/05/03 12:35:43;;;;;;;8.40;4.25;;;19.40;47.20;;;;;;5113384;27;20031;-64
2022/05/03 12:38:14;;;;;;;8.20;4.25;;;19.30;47.10;;;;;;5134592;27;20027;-66
2022/05/03 12:40:47;;;;;;;8.38;4.65;;;19.20;47.30;;;;;;5132738;27;20045;-65
2022/05/03 12:43:19;;;;;;;8.73;5.38;;;19.10;47.60;;;;;;5130315;27;20047;-65
2022/05/03 12:46:00;;;;;;;9.50;5.40;;;19.00;47.80;;;;;;5117818;27;20046;-65
2022/05/03 12:48:28;;;;;;;11.48;5.53;;;19.00;47.90;;;;;;5115429;28;20092;-65
2022/05/03 12:50:55;;;;;;;10.70;5.03;;;18.90;48.00;;;;;;5120611;27;20380;-65
2022/05/03 12:53:29;;;;;;;8.73;4.95;;;18.80;48.20;;;;;;5125512;27;20135;-65
2022/05/03 12:55:56;;;;;;;9.07;5.55;;;18.80;48.30;;;;;;5125069;27;20340;-65
2022/05/03 12:58:24;;;;;;;10.30;5.97;;;18.70;48.20;;;;;;5119679;27;20115;-65
2022/05/03 13:00:51;;;;;;;8.27;5.15;;;18.60;48.30;;;;;;5125745;27;20023;-65
2022/05/03 13:03:18;;;;;;;8.77;5.47;;;18.60;48.50;;;;;;5130401;27;20452;-65
2022/05/03 13:05:44;;;;;;;12.35;6.32;;;18.60;48.70;;;;;;5134712;27;20427;-65
2022/05/03 13:08:10;;;;;;;18.48;9.95;;;18.50;49.00;;;;;;5156567;27;20035;-65
2022/05/03 13:10:38;;;;;;;18.77;10.68;;;18.40;49.50;;;;;;5126866;27;20063;-65
2022/05/03 13:13:04;;;;;;;17.95;10.45;;;18.40;50.20;;;;;;5114653;27;20023;-65
2022/05/03 13:15:31;;;;;;;19.90;12.38;;;18.30;50.60;;;;;;5130670;27;20038;-65
2022/05/03 13:17:58;;;;;;;24.67;13.27;;;18.30;51.20;;;;;;5135146;27;20077;-65
2022/05/03 13:20:23;;;;;;;24.98;14.25;;;18.20;51.60;;;;;;5106587;28;20024;-65
2022/05/03 13:22:49;;;;;;;26.00;14.23;;;18.10;52.10;;;;;;5116368;28;20075;-65
2022/05/03 13:25:15;;;;;;;22.90;12.68;;;18.10;52.50;;;;;;5133078;28;20440;-65
2022/05/03 13:27:41;;;;;;;22.45;14.30;;;18.00;52.80;;;;;;5117712;28;20077;-65
2022/05/03 13:30:09;;;;;;;23.88;14.20;;;18.00;53.00;;;;;;5110377;28;20054;-65
2022/05/03 13:32:34;;;;;;;26.30;14.40;;;17.90;53.30;;;;;;5138803;27;20031;-65
2022/05/03 13:35:00;;;;;;;25.40;15.18;;;17.90;53.60;;;;;;5147113;27;20035;-65
2022/05/03 13:40:28;;;;;;;24.52;14.25;;;17.80;54.10;;;;;;5122560;28;20055;-65